Time;durP1;ratioP1;P1;durP2;ratioP2;P2;SDS_P1;SDS_P2;PMS_P1;PMS_P2;Temp;Humidity;BMP_temperature;BMP_pressure;BME280_temperature;BME280_humidity;BME280_pressure;Samples;Min_cycle;Max_cycle;Signal;HPM_P1;HPM_P2
2022/07/23 00:00:05;;;;;;;6.38;2.10;;;;;;;;;;5040805;28;20217;-82
2022/07/23 00:02:31;;;;;;;6.20;2.20;;;;;;;;;;5040851;28;20049;-81
2022/07/23 00:04:56;;;;;;;6.57;2.00;;;;;;;;;;5040747;28;20026;-82
2022/07/23 00:07:22;;;;;;;6.75;1.95;;;;;;;;;;5041542;28;20030;-82
2022/07/23 00:09:47;;;;;;;6.35;2.00;;;;;;;;;;5041386;28;20337;-83
2022/07/23 00:12:12;;;;;;;5.45;1.83;;;;;;;;;;5040842;28;20026;-81
2022/07/23 00:14:38;;;;;;;6.20;2.10;;;;;;;;;;5040511;28;20025;-81
2022/07/23 00:17:03;;;;;;;6.07;1.90;;;;;;;;;;5040591;28;20029;-82
2022/07/23 00:19:29;;;;;;;6.82;2.20;;;;;;;;;;5041795;28;20089;-85
2022/07/23 00:21:54;;;;;;;6.10;2.00;;;;;;;;;;5041394;28;20097;-85
2022/07/23 00:24:20;;;;;;;5.65;2.20;;;;;;;;;;5040902;28;20040;-84
2022/07/23 00:26:46;;;;;;;7.03;2.22;;;;;;;;;;5041475;28;20221;-85
2022/07/23 00:29:11;;;;;;;5.90;2.10;;;;;;;;;;5041354;28;20033;-85
2022/07/23 00:31:37;;;;;;;9.05;2.05;;;;;;;;;;5041513;28;20054;-86
2022/07/23 00:34:02;;;;;;;5.13;2.03;;;;;;;;;;5040267;28;20033;-86
2022/07/23 00:36:28;;;;;;;5.85;1.80;;;;;;;;;;5040850;28;20317;-84
2022/07/23 00:38:54;;;;;;;5.05;2.15;;;;;;;;;;5040014;28;20082;-81
2022/07/23 00:41:19;;;;;;;5.93;2.03;;;;;;;;;;5040377;28;20029;-80
2022/07/23 00:43:45;;;;;;;6.93;2.30;;;;;;;;;;5040561;28;20088;-80
2022/07/23 00:46:11;;;;;;;8.93;2.25;;;;;;;;;;5039987;28;20033;-80
2022/07/23 00:48:36;;;;;;;10.43;2.42;;;;;;;;;;5040307;28;20041;-81
2022/07/23 00:51:02;;;;;;;8.55;2.60;;;;;;;;;;5038257;28;20034;-80
2022/07/23 00:53:28;;;;;;;10.32;2.63;;;;;;;;;;5040236;28;20029;-80
2022/07/23 00:55:54;;;;;;;7.28;2.40;;;;;;;;;;5038389;28;20029;-80
2022/07/23 00:58:20;;;;;;;6.70;2.33;;;;;;;;;;5039411;28;20088;-80
2022/07/23 01:00:46;;;;;;;7.32;2.40;;;;;;;;;;5039623;28;20322;-80
2022/07/23 01:03:11;;;;;;;9.70;2.70;;;;;;;;;;5039918;28;20026;-80
2022/07/23 01:05:37;;;;;;;8.25;2.75;;;;;;;;;;5039831;28;20086;-80
2022/07/23 01:08:03;;;;;;;6.38;2.47;;;;;;;;;;5039740;28;20033;-80
2022/07/23 01:10:31;;;;;;;7.22;2.60;;;;;;;;;;5040060;28;20034;-80
2022/07/23 01:13:01;;;;;;;7.05;2.45;;;;;;;;;;5039971;28;20030;-81
2022/07/23 01:15:27;;;;;;;6.20;2.20;;;;;;;;;;5040112;28;20097;-80
2022/07/23 01:17:53;;;;;;;6.80;2.78;;;;;;;;;;5040525;28;20034;-80
2022/07/23 01:20:19;;;;;;;7.70;2.85;;;;;;;;;;5040458;28;20302;-80
2022/07/23 01:22:45;;;;;;;5.90;2.40;;;;;;;;;;5039287;28;20052;-80
2022/07/23 01:25:10;;;;;;;7.35;2.40;;;;;;;;;;5040732;28;20037;-80
2022/07/23 01:27:36;;;;;;;8.77;2.85;;;;;;;;;;5040450;28;20026;-80
2022/07/23 01:30:03;;;;;;;7.75;2.47;;;;;;;;;;5039011;28;20213;-80
2022/07/23 01:32:29;;;;;;;8.80;2.53;;;;;;;;;;5040472;28;20029;-80
2022/07/23 01:34:54;;;;;;;7.63;2.60;;;;;;;;;;5040375;28;20026;-81
2022/07/23 01:37:20;;;;;;;8.07;2.47;;;;;;;;;;5040238;28;20026;-80
2022/07/23 01:39:45;;;;;;;6.22;2.55;;;;;;;;;;5040420;28;20129;-80
2022/07/23 01:42:10;;;;;;;6.88;2.50;;;;;;;;;;5040443;28;20026;-81
2022/07/23 01:44:36;;;;;;;6.68;2.28;;;;;;;;;;5040174;28;20021;-80
2022/07/23 01:47:02;;;;;;;9.32;2.60;;;;;;;;;;5040265;28;20025;-82
2022/07/23 01:49:27;;;;;;;8.40;2.58;;;;;;;;;;5040102;28;20052;-80
2022/07/23 01:52:01;;;;;;;7.25;2.50;;;;;;;;;;5038951;28;20324;-81
2022/07/23 01:54:28;;;;;;;9.93;2.40;;;;;;;;;;5040129;28;20037;-81
2022/07/23 01:56:54;;;;;;;5.28;2.47;;;;;;;;;;5040126;28;20021;-81
2022/07/23 01:59:21;;;;;;;7.45;2.65;;;;;;;;;;5040002;28;20029;-80
2022/07/23 02:01:46;;;;;;;5.82;2.60;;;;;;;;;;5040132;28;20079;-81
2022/07/23 02:04:11;;;;;;;6.97;2.40;;;;;;;;;;5040052;28;20044;-81
2022/07/23 02:06:37;;;;;;;5.50;2.42;;;;;;;;;;5039592;28;20202;-81
2022/07/23 02:09:02;;;;;;;8.10;2.47;;;;;;;;;;5039731;28;20309;-81
2022/07/23 02:11:28;;;;;;;5.38;2.28;;;;;;;;;;5039811;28;20036;-81
2022/07/23 02:13:53;;;;;;;7.28;2.40;;;;;;;;;;5038863;28;20018;-81
2022/07/23 02:16:19;;;;;;;8.80;2.55;;;;;;;;;;5039266;28;20088;-81
2022/07/23 02:18:45;;;;;;;7.22;2.45;;;;;;;;;;5039643;28;20036;-81
2022/07/23 02:21:11;;;;;;;5.18;2.33;;;;;;;;;;5038949;28;20026;-81
2022/07/23 02:23:36;;;;;;;8.52;2.65;;;;;;;;;;5039315;28;20216;-81
2022/07/23 02:26:02;;;;;;;6.22;2.55;;;;;;;;;;5037465;28;20029;-81
2022/07/23 02:28:27;;;;;;;6.25;2.53;;;;;;;;;;5038736;28;20029;-81
2022/07/23 02:30:53;;;;;;;6.55;2.22;;;;;;;;;;5038771;28;20036;-81
2022/07/23 02:33:18;;;;;;;6.20;2.55;;;;;;;;;;5039689;28;20025;-81
2022/07/23 02:35:44;;;;;;;7.55;2.40;;;;;;;;;;5039572;28;20079;-81
2022/07/23 02:38:09;;;;;;;6.55;2.42;;;;;;;;;;5039289;28;20052;-82
2022/07/23 02:40:34;;;;;;;12.38;2.63;;;;;;;;;;5039500;28;20306;-81
2022/07/23 02:43:00;;;;;;;5.78;2.30;;;;;;;;;;5039438;28;20025;-81
2022/07/23 02:45:25;;;;;;;9.60;2.65;;;;;;;;;;5039252;28;20041;-81
2022/07/23 02:47:51;;;;;;;6.43;2.35;;;;;;;;;;5039272;28;20017;-81
2022/07/23 02:50:16;;;;;;;7.53;2.50;;;;;;;;;;5039401;28;20037;-82
2022/07/23 02:52:42;;;;;;;7.25;2.60;;;;;;;;;;5038340;28;20030;-82
2022/07/23 02:55:07;;;;;;;7.57;2.47;;;;;;;;;;5038013;28;20029;-82
2022/07/23 02:57:33;;;;;;;7.30;2.50;;;;;;;;;;5038972;28;20029;-82
2022/07/23 02:59:58;;;;;;;8.30;2.45;;;;;;;;;;5038671;28;20335;-82
2022/07/23 03:02:24;;;;;;;6.25;2.40;;;;;;;;;;5038066;28;20045;-81
2022/07/23 03:04:53;;;;;;;6.22;2.45;;;;;;;;;;5038549;28;20033;-81
2022/07/23 03:07:18;;;;;;;13.05;2.63;;;;;;;;;;5038955;28;20032;-81
2022/07/23 03:09:44;;;;;;;7.35;2.47;;;;;;;;;;5039114;28;20045;-81
2022/07/23 03:12:09;;;;;;;12.15;2.53;;;;;;;;;;5039116;28;20339;-81
2022/07/23 03:14:35;;;;;;;8.98;2.72;;;;;;;;;;5039194;28;20052;-82
2022/07/23 03:17:00;;;;;;;8.07;2.78;;;;;;;;;;5038949;28;20033;-81
2022/07/23 03:19:26;;;;;;;7.45;2.53;;;;;;;;;;5039045;28;20286;-81
2022/07/23 03:21:52;;;;;;;8.55;2.50;;;;;;;;;;5038746;28;20018;-81
2022/07/23 03:24:17;;;;;;;7.75;2.33;;;;;;;;;;5037899;28;20217;-82
2022/07/23 03:26:43;;;;;;;10.80;2.70;;;;;;;;;;5038376;28;20038;-80
2022/07/23 03:29:09;;;;;;;8.32;2.47;;;;;;;;;;5038634;28;20056;-81
2022/07/23 03:31:34;;;;;;;8.07;2.50;;;;;;;;;;5038128;28;20025;-81
2022/07/23 03:34:00;;;;;;;7.03;2.42;;;;;;;;;;5037464;28;20328;-81
2022/07/23 03:36:26;;;;;;;6.43;2.17;;;;;;;;;;5037021;28;20094;-81
2022/07/23 03:38:52;;;;;;;7.70;2.67;;;;;;;;;;5037505;28;20025;-81
2022/07/23 03:41:18;;;;;;;9.20;2.90;;;;;;;;;;5036770;28;20307;-82
2022/07/23 03:43:43;;;;;;;10.77;2.70;;;;;;;;;;5037708;28;20084;-81
2022/07/23 03:46:09;;;;;;;7.43;2.60;;;;;;;;;;5037038;28;20074;-81
2022/07/23 03:48:35;;;;;;;7.95;2.80;;;;;;;;;;5037695;28;20029;-82
2022/07/23 03:51:00;;;;;;;10.32;2.60;;;;;;;;;;5037085;28;20021;-82
2022/07/23 03:53:26;;;;;;;8.65;2.90;;;;;;;;;;5036704;28;20102;-81
2022/07/23 03:55:51;;;;;;;7.35;2.80;;;;;;;;;;5037369;28;20333;-81
2022/07/23 03:58:17;;;;;;;7.90;2.80;;;;;;;;;;5037580;28;20224;-81
2022/07/23 04:00:42;;;;;;;8.50;2.90;;;;;;;;;;5038229;28;20037;-81
2022/07/23 04:03:07;;;;;;;11.60;3.03;;;;;;;;;;5038241;28;20301;-81
2022/07/23 04:05:33;;;;;;;7.35;2.63;;;;;;;;;;5038265;28;20034;-81
2022/07/23 04:07:58;;;;;;;11.18;2.90;;;;;;;;;;5038108;28;20255;-81
2022/07/23 04:10:24;;;;;;;6.65;2.70;;;;;;;;;;5038102;28;20021;-81
2022/07/23 04:12:49;;;;;;;7.63;3.13;;;;;;;;;;5038190;28;20101;-81
2022/07/23 04:15:15;;;;;;;10.98;3.00;;;;;;;;;;5038338;28;20251;-82
2022/07/23 04:17:40;;;;;;;8.02;3.13;;;;;;;;;;5037863;28;20021;-81
2022/07/23 04:20:06;;;;;;;9.30;3.08;;;;;;;;;;5037521;28;20025;-81
2022/07/23 04:22:32;;;;;;;7.65;2.78;;;;;;;;;;5037539;28;20089;-81
2022/07/23 04:24:57;;;;;;;5.78;2.92;;;;;;;;;;5037435;28;20029;-82
2022/07/23 04:27:22;;;;;;;7.75;3.10;;;;;;;;;;5036626;28;20030;-81
2022/07/23 04:29:48;;;;;;;10.52;2.60;;;;;;;;;;5036237;28;20084;-82
2022/07/23 04:32:13;;;;;;;7.30;2.47;;;;;;;;;;5036838;28;20307;-81
2022/07/23 04:34:39;;;;;;;8.65;2.95;;;;;;;;;;5035138;28;20078;-82
2022/07/23 04:37:04;;;;;;;6.85;2.95;;;;;;;;;;5037936;28;20095;-82
2022/07/23 04:39:30;;;;;;;8.82;2.70;;;;;;;;;;5039646;28;20074;-83
2022/07/23 04:41:56;;;;;;;6.55;2.55;;;;;;;;;;5040124;28;20021;-82
2022/07/23 04:44:21;;;;;;;10.07;3.08;;;;;;;;;;5040829;28;20052;-82
2022/07/23 04:46:46;;;;;;;6.70;2.95;;;;;;;;;;5040493;28;20026;-83
2022/07/23 04:49:12;;;;;;;9.05;2.60;;;;;;;;;;5040964;28;20013;-81
2022/07/23 04:51:38;;;;;;;6.50;2.80;;;;;;;;;;5040822;28;20032;-82
2022/07/23 04:54:03;;;;;;;10.07;3.05;;;;;;;;;;5039726;28;20090;-83
2022/07/23 04:56:28;;;;;;;10.02;3.22;;;;;;;;;;5039453;28;20021;-82
2022/07/23 04:58:54;;;;;;;8.45;2.60;;;;;;;;;;5039970;28;20024;-83
2022/07/23 05:01:19;;;;;;;7.95;3.03;;;;;;;;;;5039935;28;20119;-84
2022/07/23 05:03:44;;;;;;;7.60;2.90;;;;;;;;;;5039809;28;20045;-83
2022/07/23 05:06:10;;;;;;;8.05;3.10;;;;;;;;;;5039812;28;20343;-82
2022/07/23 05:08:35;;;;;;;8.20;2.90;;;;;;;;;;5039787;28;20032;-83
2022/07/23 05:11:01;;;;;;;9.02;3.10;;;;;;;;;;5039578;28;20045;-83
2022/07/23 05:13:26;;;;;;;11.32;2.90;;;;;;;;;;5038720;28;20287;-82
2022/07/23 05:15:52;;;;;;;9.68;3.22;;;;;;;;;;5040201;28;20093;-82
2022/07/23 05:18:17;;;;;;;7.47;3.20;;;;;;;;;;5040652;28;20025;-83
2022/07/23 05:20:42;;;;;;;7.30;2.70;;;;;;;;;;5040664;28;20029;-84
2022/07/23 05:23:08;;;;;;;7.32;2.83;;;;;;;;;;5040261;28;20028;-83
2022/07/23 05:25:34;;;;;;;9.52;2.72;;;;;;;;;;5040557;28;20029;-83
2022/07/23 05:27:59;;;;;;;7.07;2.72;;;;;;;;;;5040582;28;20034;-83
2022/07/23 05:30:25;;;;;;;10.20;2.85;;;;;;;;;;5040518;28;20029;-83
2022/07/23 05:32:50;;;;;;;4.95;2.40;;;;;;;;;;5040594;28;20093;-83
2022/07/23 05:35:16;;;;;;;5.43;2.40;;;;;;;;;;5040464;28;20097;-82
2022/07/23 05:37:41;;;;;;;7.13;2.47;;;;;;;;;;5040257;28;20241;-84
2022/07/23 05:40:09;;;;;;;6.20;2.30;;;;;;;;;;5040439;28;20031;-84
2022/07/23 05:42:39;;;;;;;6.45;2.50;;;;;;;;;;5040262;28;20033;-83
2022/07/23 05:45:05;;;;;;;6.28;2.35;;;;;;;;;;5040462;28;20050;-84
2022/07/23 05:47:46;;;;;;;5.80;2.40;;;;;;;;;;5039330;28;20033;-81
2022/07/23 05:50:13;;;;;;;7.18;2.60;;;;;;;;;;5040065;28;20198;-81
2022/07/23 05:52:39;;;;;;;6.13;2.35;;;;;;;;;;5040196;28;20030;-81
2022/07/23 05:55:05;;;;;;;6.57;2.60;;;;;;;;;;5040159;28;20055;-81
2022/07/23 05:57:30;;;;;;;6.20;2.38;;;;;;;;;;5038974;28;20045;-81
2022/07/23 05:59:56;;;;;;;5.57;2.45;;;;;;;;;;5038960;28;20313;-81
2022/07/23 06:02:21;;;;;;;8.40;2.40;;;;;;;;;;5040047;28;20041;-81
2022/07/23 06:04:47;;;;;;;5.40;2.50;;;;;;;;;;5040081;28;20210;-81
2022/07/23 06:07:12;;;;;;;6.68;2.40;;;;;;;;;;5039947;28;20213;-82
2022/07/23 06:09:37;;;;;;;5.93;2.30;;;;;;;;;;5039812;28;20041;-77
2022/07/23 06:12:03;;;;;;;6.40;2.28;;;;;;;;;;5039863;28;20088;-76
2022/07/23 06:14:29;;;;;;;9.48;2.50;;;;;;;;;;5039860;28;20049;-77
2022/07/23 06:16:54;;;;;;;7.50;2.50;;;;;;;;;;5039856;28;20025;-80
2022/07/23 06:19:19;;;;;;;5.90;2.47;;;;;;;;;;5039792;28;20094;-76
2022/07/23 06:21:45;;;;;;;6.32;2.38;;;;;;;;;;5039682;28;20030;-77
2022/07/23 06:24:10;;;;;;;6.38;2.30;;;;;;;;;;5039686;28;20040;-78
2022/07/23 06:26:36;;;;;;;5.88;2.30;;;;;;;;;;5039522;28;20105;-75
2022/07/23 06:29:01;;;;;;;8.07;2.20;;;;;;;;;;5038740;28;20336;-73
2022/07/23 06:31:27;;;;;;;7.97;2.30;;;;;;;;;;5039483;28;20033;-76
2022/07/23 06:33:52;;;;;;;6.63;2.40;;;;;;;;;;5039161;28;20292;-76
2022/07/23 06:36:18;;;;;;;11.07;2.50;;;;;;;;;;5038442;28;20029;-76
2022/07/23 06:38:43;;;;;;;6.80;2.30;;;;;;;;;;5038209;28;20063;-78
2022/07/23 06:41:09;;;;;;;7.47;2.33;;;;;;;;;;5036522;28;20599;-75
2022/07/23 06:43:34;;;;;;;7.40;2.40;;;;;;;;;;5038200;28;20100;-82
2022/07/23 06:46:00;;;;;;;6.22;2.40;;;;;;;;;;5037712;28;20060;-76
2022/07/23 06:48:25;;;;;;;6.53;2.45;;;;;;;;;;5039341;28;20029;-75
2022/07/23 06:50:52;;;;;;;8.93;2.40;;;;;;;;;;5038701;28;20036;-76
2022/07/23 06:53:18;;;;;;;7.00;2.25;;;;;;;;;;5039158;28;20044;-77
2022/07/23 06:55:43;;;;;;;7.18;2.10;;;;;;;;;;5039436;28;20033;-77
2022/07/23 06:58:09;;;;;;;6.57;2.03;;;;;;;;;;5039208;28;20049;-76
2022/07/23 07:00:35;;;;;;;7.60;2.30;;;;;;;;;;5037980;28;20359;-76
2022/07/23 07:03:01;;;;;;;8.70;2.35;;;;;;;;;;5038971;28;20061;-76
2022/07/23 07:05:27;;;;;;;5.80;2.17;;;;;;;;;;5038973;28;20074;-76
2022/07/23 07:07:54;;;;;;;8.75;2.40;;;;;;;;;;5038922;28;20037;-77
2022/07/23 07:10:20;;;;;;;8.43;2.38;;;;;;;;;;5038774;28;20033;-81
2022/07/23 07:12:46;;;;;;;7.90;2.28;;;;;;;;;;5039111;28;20034;-75
2022/07/23 07:15:11;;;;;;;8.30;2.22;;;;;;;;;;5039219;28;20032;-76
2022/07/23 07:17:37;;;;;;;5.72;2.08;;;;;;;;;;5039165;28;20370;-78
2022/07/23 07:20:03;;;;;;;6.85;2.10;;;;;;;;;;5038767;28;20322;-76
2022/07/23 07:22:29;;;;;;;7.65;2.40;;;;;;;;;;5037506;28;20070;-76
2022/07/23 07:24:55;;;;;;;6.07;2.00;;;;;;;;;;5037105;28;20033;-76
2022/07/23 07:27:20;;;;;;;6.63;2.30;;;;;;;;;;5038517;28;20025;-75
2022/07/23 07:29:46;;;;;;;5.88;2.50;;;;;;;;;;5038577;28;20025;-76
2022/07/23 07:32:11;;;;;;;7.07;2.38;;;;;;;;;;5038501;28;20067;-74
2022/07/23 07:34:36;;;;;;;14.45;2.53;;;;;;;;;;5038660;28;20109;-74
2022/07/23 07:37:02;;;;;;;13.98;2.78;;;;;;;;;;5038552;28;20030;-76
2022/07/23 07:39:27;;;;;;;21.05;2.65;;;;;;;;;;5038242;28;20186;-73
2022/07/23 07:41:53;;;;;;;8.32;2.42;;;;;;;;;;5038377;28;20036;-73
2022/07/23 07:44:18;;;;;;;9.88;2.50;;;;;;;;;;5038493;28;20032;-74
2022/07/23 07:46:44;;;;;;;14.93;2.92;;;;;;;;;;5038547;28;20060;-74
2022/07/23 07:49:09;;;;;;;6.88;2.15;;;;;;;;;;5037397;28;20049;-74
2022/07/23 07:51:35;;;;;;;6.03;2.40;;;;;;;;;;5038194;28;20554;-74
2022/07/23 07:54:00;;;;;;;6.88;2.22;;;;;;;;;;5037358;28;20025;-77
2022/07/23 07:56:26;;;;;;;7.65;2.00;;;;;;;;;;5037870;28;20047;-86
2022/07/23 07:58:51;;;;;;;10.55;2.20;;;;;;;;;;5038083;28;20045;-75
2022/07/23 08:01:18;;;;;;;5.47;2.22;;;;;;;;;;5018033;28;20264;-76
2022/07/23 08:03:43;;;;;;;8.35;2.60;;;;;;;;;;5018216;28;20031;-83
2022/07/23 08:06:09;;;;;;;6.72;2.45;;;;;;;;;;5016080;28;20033;-84
2022/07/23 08:08:34;;;;;;;7.88;2.00;;;;;;;;;;5017176;28;20053;-76
2022/07/23 08:11:00;;;;;;;6.40;2.35;;;;;;;;;;5017101;28;20030;-75
2022/07/23 08:13:25;;;;;;;6.53;2.20;;;;;;;;;;5018581;28;20075;-75
2022/07/23 08:15:52;;;;;;;6.00;2.38;;;;;;;;;;5019456;28;20053;-74
2022/07/23 08:18:18;;;;;;;8.75;2.30;;;;;;;;;;5020206;28;20049;-77
2022/07/23 08:20:43;;;;;;;6.70;2.30;;;;;;;;;;5019848;28;20030;-73
2022/07/23 08:23:09;;;;;;;7.93;2.22;;;;;;;;;;5020396;28;20022;-73
2022/07/23 08:25:40;;;;;;;8.43;2.35;;;;;;;;;;5021040;28;20117;-72
2022/07/23 08:28:08;;;;;;;7.38;2.40;;;;;;;;;;5118016;27;20019;-73
2022/07/23 08:30:35;;;;;;;7.63;2.25;;;;;;;;;;5026185;28;20508;-73
2022/07/23 08:33:11;;;;;;;7.20;2.40;;;;;;;;;;5040013;28;20321;-73
2022/07/23 08:35:47;;;;;;;8.20;2.38;;;;;;;;;;5040366;28;20017;-75
2022/07/23 08:38:15;;;;;;;12.02;2.67;;;;;;;;;;5040883;28;20041;-74
2022/07/23 08:40:46;;;;;;;7.65;2.40;;;;;;;;;;5040347;28;20029;-73
2022/07/23 08:43:17;;;;;;;6.70;2.30;;;;;;;;;;5040930;28;20041;-73
2022/07/23 08:45:46;;;;;;;7.88;2.53;;;;;;;;;;5041125;28;20033;-73
2022/07/23 08:48:16;;;;;;;7.18;2.30;;;;;;;;;;5041047;28;20033;-75
2022/07/23 08:50:48;;;;;;;4.20;2.15;;;;;;;;;;5041031;28;20440;-73
2022/07/23 08:53:15;;;;;;;5.85;2.10;;;;;;;;;;5040817;28;20346;-80
2022/07/23 08:55:44;;;;;;;6.28;2.00;;;;;;;;;;5041010;28;20217;-79
2022/07/23 08:58:10;;;;;;;7.75;2.20;;;;;;;;;;5040979;28;20100;-79
2022/07/23 09:00:35;;;;;;;8.95;2.30;;;;;;;;;;5040557;28;20090;-79
2022/07/23 09:03:01;;;;;;;7.15;2.22;;;;;;;;;;5040798;28;20024;-79
2022/07/23 09:05:26;;;;;;;6.88;2.47;;;;;;;;;;5038337;28;20190;-79
2022/07/23 09:08:10;;;;;;;9.10;2.30;;;;;;;;;;5039944;28;20024;-78
2022/07/23 09:10:51;;;;;;;6.30;2.15;;;;;;;;;;5039360;28;20078;-79
2022/07/23 09:13:25;;;;;;;5.57;2.15;;;;;;;;;;5039879;28;20038;-78
2022/07/23 09:15:53;;;;;;;5.88;2.30;;;;;;;;;;5038797;28;20029;-74
2022/07/23 09:18:19;;;;;;;6.53;1.88;;;;;;;;;;5037349;28;20032;-73
2022/07/23 09:20:45;;;;;;;4.97;2.15;;;;;;;;;;5038284;28;20033;-73
2022/07/23 09:23:10;;;;;;;5.90;2.03;;;;;;;;;;5037971;28;20082;-74
2022/07/23 09:25:35;;;;;;;9.23;1.88;;;;;;;;;;5040309;28;20271;-73
2022/07/23 09:28:02;;;;;;;6.90;2.10;;;;;;;;;;5039610;28;20058;-73
2022/07/23 09:30:31;;;;;;;10.98;1.98;;;;;;;;;;5040299;28;20431;-79
2022/07/23 09:33:10;;;;;;;5.60;2.00;;;;;;;;;;5040431;28;20033;-71
2022/07/23 09:35:53;;;;;;;4.95;1.90;;;;;;;;;;5040410;28;20033;-71
2022/07/23 09:38:22;;;;;;;7.05;1.55;;;;;;;;;;5040854;28;20075;-69
2022/07/23 09:41:08;;;;;;;5.38;1.88;;;;;;;;;;5040336;28;20139;-68
2022/07/23 09:43:34;;;;;;;5.60;1.60;;;;;;;;;;5040390;28;20029;-72
2022/07/23 09:46:19;;;;;;;6.03;2.00;;;;;;;;;;5040087;28;20058;-72
2022/07/23 09:48:45;;;;;;;6.60;1.80;;;;;;;;;;5039929;28;20030;-73
2022/07/23 09:51:10;;;;;;;5.72;1.70;;;;;;;;;;5039327;28;20252;-72
2022/07/23 09:53:36;;;;;;;6.00;1.80;;;;;;;;;;5038941;28;20329;-75
2022/07/23 09:56:02;;;;;;;6.03;1.90;;;;;;;;;;5039604;28;20029;-74
2022/07/23 09:58:30;;;;;;;5.55;1.65;;;;;;;;;;5039885;28;20036;-70
2022/07/23 10:00:57;;;;;;;11.18;2.08;;;;;;;;;;5039178;28;20072;-72
2022/07/23 10:03:23;;;;;;;7.80;1.92;;;;;;;;;;5039117;28;20036;-73
2022/07/23 10:05:50;;;;;;;7.45;1.80;;;;;;;;;;5038743;28;20038;-69
2022/07/23 10:08:18;;;;;;;5.45;1.80;;;;;;;;;;5039076;28;20066;-70
2022/07/23 10:10:46;;;;;;;6.32;1.90;;;;;;;;;;5039330;28;20036;-76
2022/07/23 10:15:55;;;;;;;5.18;1.60;;;;;;;;;;5038897;28;20093;-75
2022/07/23 10:18:21;;;;;;;5.18;1.40;;;;;;;;;;5038676;28;20319;-76
2022/07/23 10:20:49;;;;;;;4.10;1.38;;;;;;;;;;5038234;28;20109;-75
2022/07/23 10:23:27;;;;;;;3.63;1.35;;;;;;;;;;5038870;28;20026;-75
2022/07/23 10:26:17;;;;;;;5.25;1.60;;;;;;;;;;5038712;28;20040;-76
2022/07/23 10:28:45;;;;;;;5.45;1.58;;;;;;;;;;5039095;28;20035;-76
2022/07/23 10:31:37;;;;;;;4.60;1.35;;;;;;;;;;5038613;28;20057;-75
2022/07/23 10:34:09;;;;;;;5.30;1.50;;;;;;;;;;5038768;28;20026;-75
2022/07/23 10:36:49;;;;;;;5.07;1.50;;;;;;;;;;5038853;28;20078;-76
2022/07/23 10:39:28;;;;;;;5.05;1.60;;;;;;;;;;5039074;28;20269;-74
2022/07/23 10:42:11;;;;;;;2.63;1.45;;;;;;;;;;5038239;28;20041;-75
2022/07/23 10:44:57;;;;;;;5.60;1.60;;;;;;;;;;5039375;28;20029;-77
2022/07/23 10:50:34;;;;;;;3.53;1.38;;;;;;;;;;5038633;28;20212;-73
2022/07/23 10:53:06;;;;;;;3.92;1.50;;;;;;;;;;5112683;27;20024;-76
2022/07/23 10:55:31;;;;;;;3.95;1.40;;;;;;;;;;5030978;28;20029;-77
2022/07/23 10:57:57;;;;;;;4.35;1.25;;;;;;;;;;5038746;28;20040;-74
2022/07/23 11:00:25;;;;;;;3.60;1.23;;;;;;;;;;5037739;28;20029;-77
2022/07/23 11:02:55;;;;;;;5.13;1.50;;;;;;;;;;5038470;27;20033;-74
2022/07/23 11:05:25;;;;;;;2.90;1.30;;;;;;;;;;5038708;28;20108;-70
2022/07/23 11:08:03;;;;;;;4.68;1.20;;;;;;;;;;5037251;28;20032;-78
2022/07/23 11:10:37;;;;;;;3.03;1.45;;;;;;;;;;5037134;28;20045;-73
2022/07/23 11:13:21;;;;;;;6.22;1.40;;;;;;;;;;5036839;28;20022;-75
2022/07/23 11:16:02;;;;;;;6.28;1.55;;;;;;;;;;5037781;28;20029;-78
2022/07/23 11:18:39;;;;;;;9.93;1.40;;;;;;;;;;5038738;28;20029;-74
2022/07/23 11:21:26;;;;;;;2.53;1.30;;;;;;;;;;5038623;28;20025;-73
2022/07/23 11:23:59;;;;;;;4.32;1.48;;;;;;;;;;5038693;28;20026;-75
2022/07/23 11:26:36;;;;;;;3.72;1.35;;;;;;;;;;5038508;28;20029;-80
2022/07/23 11:29:36;;;;;;;6.05;1.20;;;;;;;;;;5036273;28;20087;-76
2022/07/23 11:32:17;;;;;;;3.17;1.40;;;;;;;;;;5034919;28;20082;-76
2022/07/23 11:34:48;;;;;;;3.28;1.38;;;;;;;;;;5036007;28;20037;-77
2022/07/23 11:37:53;;;;;;;2.28;1.13;;;;;;;;;;5036551;28;20033;-77
2022/07/23 11:40:19;;;;;;;4.47;1.23;;;;;;;;;;5060612;28;20024;-78
2022/07/23 11:43:00;;;;;;;2.47;1.23;;;;;;;;;;5044143;28;20060;-78
2022/07/23 11:45:33;;;;;;;2.90;1.10;;;;;;;;;;5037792;28;20053;-77
2022/07/23 11:47:58;;;;;;;2.25;1.05;;;;;;;;;;5041975;28;20026;-78
2022/07/23 11:50:27;;;;;;;4.22;1.23;;;;;;;;;;5041814;28;20049;-72
2022/07/23 11:52:53;;;;;;;1.90;1.10;;;;;;;;;;5040735;28;20029;-74
2022/07/23 11:55:19;;;;;;;2.13;1.13;;;;;;;;;;5040858;28;20033;-73
2022/07/23 11:57:45;;;;;;;2.33;1.00;;;;;;;;;;5039927;28;20038;-70
2022/07/23 12:00:13;;;;;;;3.60;1.33;;;;;;;;;;5040028;28;20071;-81
2022/07/23 12:02:43;;;;;;;2.58;1.30;;;;;;;;;;5040073;28;20086;-72
2022/07/23 12:05:33;;;;;;;2.30;1.35;;;;;;;;;;5038980;28;20619;-69
2022/07/23 12:08:00;;;;;;;4.65;1.27;;;;;;;;;;5045755;28;20049;-71
2022/07/23 12:10:34;;;;;;;4.05;1.55;;;;;;;;;;5040883;28;20041;-74
2022/07/23 12:13:06;;;;;;;3.38;1.67;;;;;;;;;;5075481;27;20313;-72
2022/07/23 12:15:38;;;;;;;5.32;1.70;;;;;;;;;;5041315;28;20040;-70
2022/07/23 12:18:05;;;;;;;5.28;1.80;;;;;;;;;;5041523;28;20068;-75
2022/07/23 12:20:34;;;;;;;3.22;1.38;;;;;;;;;;5040768;28;20093;-76
2022/07/23 12:23:02;;;;;;;5.25;1.70;;;;;;;;;;5037635;28;20033;-76
2022/07/23 12:25:30;;;;;;;4.78;1.50;;;;;;;;;;5038252;28;20033;-71
2022/07/23 12:28:19;;;;;;;4.10;1.50;;;;;;;;;;5039413;28;20041;-74
2022/07/23 12:30:49;;;;;;;3.47;1.48;;;;;;;;;;5031145;28;20029;-70
2022/07/23 12:33:22;;;;;;;3.45;1.50;;;;;;;;;;5039796;28;20034;-68
2022/07/23 12:35:48;;;;;;;7.50;1.65;;;;;;;;;;5039516;28;20033;-70
2022/07/23 12:38:16;;;;;;;3.80;1.70;;;;;;;;;;5040433;28;20030;-72
2022/07/23 12:40:57;;;;;;;4.03;1.33;;;;;;;;;;5041309;28;20037;-70
2022/07/23 12:43:27;;;;;;;4.80;1.65;;;;;;;;;;5040537;28;20053;-74
2022/07/23 12:46:05;;;;;;;4.15;1.70;;;;;;;;;;5075211;27;20035;-73
2022/07/23 12:48:36;;;;;;;5.15;1.85;;;;;;;;;;5040391;28;20324;-72
2022/07/23 12:51:07;;;;;;;6.30;2.00;;;;;;;;;;5040304;28;20066;-70
2022/07/23 12:53:42;;;;;;;4.75;2.00;;;;;;;;;;5040336;28;20029;-71
2022/07/23 12:56:13;;;;;;;3.88;1.80;;;;;;;;;;5040704;28;20025;-70
2022/07/23 12:58:44;;;;;;;4.85;1.90;;;;;;;;;;5040509;28;20032;-70
2022/07/23 13:01:34;;;;;;;6.45;2.00;;;;;;;;;;5040812;28;20259;-73
2022/07/23 13:04:02;;;;;;;6.13;1.90;;;;;;;;;;5039562;28;20091;-72
2022/07/23 13:06:30;;;;;;;3.75;1.63;;;;;;;;;;5039274;28;20081;-70
2022/07/23 13:08:56;;;;;;;4.68;1.95;;;;;;;;;;5039284;28;20033;-71
2022/07/23 13:11:21;;;;;;;3.33;1.70;;;;;;;;;;5039704;28;20038;-72
2022/07/23 13:13:47;;;;;;;4.57;2.03;;;;;;;;;;5040507;28;20057;-71
2022/07/23 13:16:12;;;;;;;5.78;1.80;;;;;;;;;;5040413;28;20025;-76
2022/07/23 13:18:38;;;;;;;4.57;1.80;;;;;;;;;;5039298;28;20327;-70
2022/07/23 13:21:03;;;;;;;4.95;1.75;;;;;;;;;;5058798;27;20053;-70
2022/07/23 13:23:29;;;;;;;5.88;1.77;;;;;;;;;;5037668;28;20064;-72
2022/07/23 13:25:55;;;;;;;5.43;1.92;;;;;;;;;;5038823;28;20034;-74
2022/07/23 13:28:22;;;;;;;5.20;1.83;;;;;;;;;;5039173;28;20033;-72
2022/07/23 13:30:49;;;;;;;3.90;1.98;;;;;;;;;;5039082;28;20021;-73
2022/07/23 13:33:25;;;;;;;5.35;1.80;;;;;;;;;;5038079;28;20066;-70
2022/07/23 13:35:52;;;;;;;3.92;1.80;;;;;;;;;;5038609;28;20029;-70
2022/07/23 13:38:19;;;;;;;7.50;2.10;;;;;;;;;;5037597;28;20024;-80
2022/07/23 13:40:47;;;;;;;3.85;2.20;;;;;;;;;;5036725;28;20229;-69
2022/07/23 13:43:14;;;;;;;7.97;2.20;;;;;;;;;;5035313;28;20537;-77
2022/07/23 13:45:42;;;;;;;7.18;2.10;;;;;;;;;;5037658;28;20351;-73
2022/07/23 13:48:08;;;;;;;4.47;1.95;;;;;;;;;;5037965;28;20025;-72
2022/07/23 13:50:34;;;;;;;6.88;2.15;;;;;;;;;;5037639;28;20048;-77
2022/07/23 13:53:09;;;;;;;5.25;1.80;;;;;;;;;;5038383;28;20337;-73
2022/07/23 13:55:35;;;;;;;5.65;2.40;;;;;;;;;;5038865;28;20045;-75
2022/07/23 13:58:02;;;;;;;4.88;2.00;;;;;;;;;;5039999;28;20025;-73
2022/07/23 14:00:30;;;;;;;4.53;2.08;;;;;;;;;;5038791;28;20209;-73
2022/07/23 14:02:56;;;;;;;4.40;2.33;;;;;;;;;;5039218;28;20037;-72
2022/07/23 14:05:22;;;;;;;5.63;2.40;;;;;;;;;;5039545;28;20033;-72
2022/07/23 14:07:49;;;;;;;3.97;2.38;;;;;;;;;;5039633;28;20032;-75
2022/07/23 14:10:17;;;;;;;4.53;2.10;;;;;;;;;;5036159;28;20040;-73
2022/07/23 14:12:43;;;;;;;5.63;2.42;;;;;;;;;;5030107;28;20067;-72
2022/07/23 14:15:08;;;;;;;7.05;2.45;;;;;;;;;;5037310;28;20029;-76
2022/07/23 14:17:36;;;;;;;8.52;2.55;;;;;;;;;;5038518;28;20194;-77
2022/07/23 14:20:01;;;;;;;3.92;2.20;;;;;;;;;;5038614;28;20585;-78
2022/07/23 14:22:27;;;;;;;6.35;2.47;;;;;;;;;;5042307;27;20086;-76
2022/07/23 14:24:52;;;;;;;7.57;2.70;;;;;;;;;;5049030;27;20213;-74
2022/07/23 14:27:18;;;;;;;5.38;2.30;;;;;;;;;;5029183;28;20036;-77
2022/07/23 14:29:43;;;;;;;7.32;2.42;;;;;;;;;;5038165;28;20213;-74
2022/07/23 14:32:09;;;;;;;6.15;2.50;;;;;;;;;;5038134;28;20139;-74
2022/07/23 14:34:35;;;;;;;6.05;2.30;;;;;;;;;;5038172;28;20052;-75
2022/07/23 14:37:01;;;;;;;6.68;2.53;;;;;;;;;;5038261;28;20021;-73
2022/07/23 14:39:27;;;;;;;7.03;2.60;;;;;;;;;;5057862;27;20031;-73
2022/07/23 14:41:52;;;;;;;5.57;2.50;;;;;;;;;;5036646;28;20052;-75
2022/07/23 14:44:17;;;;;;;5.18;2.25;;;;;;;;;;5037408;28;20094;-72
2022/07/23 14:46:43;;;;;;;9.48;2.50;;;;;;;;;;5037721;28;20356;-73
2022/07/23 14:49:08;;;;;;;6.00;2.28;;;;;;;;;;5037966;28;20029;-73
2022/07/23 14:51:36;;;;;;;5.28;2.42;;;;;;;;;;5037127;28;20120;-73